AWE1014 KBDL-KBOS
Flight info
| Callsign | AWE1014 |
|---|---|
| Flight time | 0h 33m |
| Altitude | 21000 |
| Route | HFD T216 THUMB RUIZE ROBUC3 |
| Aircraft | A321/M-SDE3FGHIRWY/LB1 |
Departure
| Time | 2026-05-05 00:33 |
|---|---|
| Airport | Bradley International Airport (KBDL) |
Arrival
| Time | 2026-05-05 01:06 |
|---|---|
| Airport | Boston Logan International Airport (KBOS) |
| Time | Latitude | Longitude | Altitude | Speed | Heading |
|---|---|---|---|---|---|
| 2026-05-05 00:18 | 41.93203 | -72.68426 | 186 ft | 0 kts | 164° |
| 2026-05-05 00:25 | 41.93207 | -72.68427 | 186 ft | 2 kts | 163° |
| 2026-05-05 00:25 | 41.93219 | -72.68433 | 186 ft | 0 kts | 164° |
| 2026-05-05 00:25 | 41.93230 | -72.68437 | 186 ft | 2 kts | 139° |
| 2026-05-05 00:26 | 41.93238 | -72.68454 | 186 ft | 2 kts | 101° |
| 2026-05-05 00:26 | 41.93236 | -72.68475 | 186 ft | 2 kts | 63° |
| 2026-05-05 00:26 | 41.93232 | -72.68484 | 185 ft | 1 kts | 43° |
| 2026-05-05 00:26 | 41.93227 | -72.68489 | 185 ft | 0 kts | 44° |
| 2026-05-05 00:28 | 41.93248 | -72.68462 | 186 ft | 10 kts | 44° |
| 2026-05-05 00:28 | 41.93308 | -72.68417 | 187 ft | 10 kts | 352° |
| 2026-05-05 00:29 | 41.93321 | -72.68419 | 187 ft | 0 kts | 356° |
| 2026-05-05 00:29 | 41.93322 | -72.68419 | 187 ft | 1 kts | 356° |
| 2026-05-05 00:29 | 41.93392 | -72.68404 | 187 ft | 15 kts | 351° |
| 2026-05-05 00:29 | 41.93477 | -72.68491 | 186 ft | 15 kts | 314° |
| 2026-05-05 00:30 | 41.93556 | -72.68600 | 186 ft | 16 kts | 314° |
| 2026-05-05 00:30 | 41.93636 | -72.68710 | 185 ft | 16 kts | 314° |
| 2026-05-05 00:30 | 41.93718 | -72.68822 | 185 ft | 16 kts | 314° |
| 2026-05-05 00:30 | 41.93791 | -72.68941 | 185 ft | 16 kts | 308° |
| 2026-05-05 00:31 | 41.93868 | -72.69051 | 185 ft | 15 kts | 314° |
| 2026-05-05 00:31 | 41.93944 | -72.69156 | 185 ft | 15 kts | 315° |
| 2026-05-05 00:31 | 41.94020 | -72.69259 | 186 ft | 15 kts | 314° |
| 2026-05-05 00:31 | 41.94091 | -72.69357 | 187 ft | 14 kts | 314° |
| 2026-05-05 00:32 | 41.94153 | -72.69393 | 187 ft | 0 kts | 7° |
| 2026-05-05 00:32 | 41.94168 | -72.69387 | 187 ft | 10 kts | 24° |
| 2026-05-05 00:32 | 41.94209 | -72.69280 | 186 ft | 16 kts | 129° |
| 2026-05-05 00:32 | 41.94040 | -72.69052 | 185 ft | 64 kts | 134° |
| 2026-05-05 00:33 | 41.93568 | -72.68406 | 187 ft | 128 kts | 134° |
| 2026-05-05 00:33 | 41.92846 | -72.67378 | 436 ft | 158 kts | 137° |
| 2026-05-05 00:33 | 41.92092 | -72.66319 | 1039 ft | 160 kts | 140° |
| 2026-05-05 00:33 | 41.91300 | -72.65277 | 1638 ft | 162 kts | 144° |
| 2026-05-05 00:34 | 41.90473 | -72.64276 | 2206 ft | 162 kts | 147° |
| 2026-05-05 00:34 | 41.89609 | -72.63303 | 2742 ft | 162 kts | 149° |
| 2026-05-05 00:34 | 41.88723 | -72.62384 | 3236 ft | 163 kts | 152° |
| 2026-05-05 00:34 | 41.87807 | -72.61509 | 3719 ft | 164 kts | 154° |
| 2026-05-05 00:35 | 41.86866 | -72.60683 | 4173 ft | 165 kts | 155° |
| 2026-05-05 00:35 | 41.85911 | -72.59748 | 4544 ft | 180 kts | 135° |
| 2026-05-05 00:35 | 41.85494 | -72.58093 | 4817 ft | 204 kts | 92° |
| 2026-05-05 00:35 | 41.85547 | -72.56110 | 5139 ft | 219 kts | 89° |
| 2026-05-05 00:36 | 41.85522 | -72.54018 | 5453 ft | 235 kts | 94° |
| 2026-05-05 00:36 | 41.85341 | -72.51753 | 5778 ft | 251 kts | 99° |
| 2026-05-05 00:36 | 41.85030 | -72.49364 | 6034 ft | 273 kts | 102° |
| 2026-05-05 00:36 | 41.84623 | -72.46815 | 6417 ft | 291 kts | 103° |
| 2026-05-05 00:37 | 41.84153 | -72.44128 | 6999 ft | 301 kts | 104° |
| 2026-05-05 00:37 | 41.83656 | -72.41380 | 7756 ft | 304 kts | 104° |
| 2026-05-05 00:37 | 41.83151 | -72.38637 | 8483 ft | 307 kts | 104° |
| 2026-05-05 00:37 | 41.82639 | -72.35884 | 9205 ft | 311 kts | 103° |
| 2026-05-05 00:38 | 41.82114 | -72.33069 | 9910 ft | 314 kts | 104° |
| 2026-05-05 00:38 | 41.81583 | -72.30218 | 10547 ft | 319 kts | 104° |
| 2026-05-05 00:38 | 41.81036 | -72.27285 | 10895 ft | 334 kts | 104° |
| 2026-05-05 00:38 | 41.80454 | -72.24186 | 11197 ft | 350 kts | 104° |
| 2026-05-05 00:39 | 41.80105 | -72.20919 | 11464 ft | 365 kts | 89° |
| 2026-05-05 00:39 | 41.80275 | -72.17480 | 11767 ft | 379 kts | 83° |
| 2026-05-05 00:39 | 41.80573 | -72.13938 | 12291 ft | 386 kts | 82° |
| 2026-05-05 00:39 | 41.80854 | -72.10380 | 12934 ft | 389 kts | 83° |
| 2026-05-05 00:40 | 41.81107 | -72.06725 | 13523 ft | 394 kts | 84° |
| 2026-05-05 00:40 | 41.81329 | -72.03061 | 14170 ft | 398 kts | 85° |
| 2026-05-05 00:40 | 41.81531 | -71.99387 | 14757 ft | 401 kts | 85° |
| 2026-05-05 00:40 | 41.81724 | -71.95646 | 15365 ft | 405 kts | 85° |
| 2026-05-05 00:41 | 41.81912 | -71.91892 | 15929 ft | 408 kts | 85° |
| 2026-05-05 00:41 | 41.82099 | -71.88077 | 16483 ft | 411 kts | 85° |
| 2026-05-05 00:41 | 41.82283 | -71.84293 | 16893 ft | 414 kts | 85° |
| 2026-05-05 00:41 | 41.82469 | -71.80422 | 16999 ft | 414 kts | 85° |
| 2026-05-05 00:42 | 41.82650 | -71.76598 | 16930 ft | 414 kts | 85° |
| 2026-05-05 00:42 | 41.82832 | -71.72760 | 16665 ft | 412 kts | 85° |
| 2026-05-05 00:42 | 41.83012 | -71.68929 | 16429 ft | 410 kts | 85° |
| 2026-05-05 00:42 | 41.83187 | -71.65148 | 16198 ft | 408 kts | 85° |
| 2026-05-05 00:43 | 41.83361 | -71.61398 | 15993 ft | 406 kts | 85° |
| 2026-05-05 00:43 | 41.83534 | -71.57611 | 15774 ft | 406 kts | 85° |
| 2026-05-05 00:43 | 41.83710 | -71.53781 | 15519 ft | 404 kts | 85° |
| 2026-05-05 00:43 | 41.83879 | -71.50028 | 15265 ft | 402 kts | 85° |
| 2026-05-05 00:44 | 41.84049 | -71.46275 | 15001 ft | 400 kts | 85° |
| 2026-05-05 00:44 | 41.84214 | -71.42553 | 14716 ft | 399 kts | 85° |
| 2026-05-05 00:44 | 41.84377 | -71.38843 | 14424 ft | 396 kts | 85° |
| 2026-05-05 00:44 | 41.84538 | -71.35194 | 14030 ft | 394 kts | 85° |
| 2026-05-05 00:45 | 41.84697 | -71.31563 | 13622 ft | 390 kts | 86° |
| 2026-05-05 00:45 | 41.84853 | -71.27944 | 13137 ft | 389 kts | 86° |
| 2026-05-05 00:45 | 41.85004 | -71.24375 | 12744 ft | 384 kts | 86° |
| 2026-05-05 00:45 | 41.85155 | -71.20812 | 12435 ft | 381 kts | 86° |
| 2026-05-05 00:46 | 41.85302 | -71.17290 | 12202 ft | 380 kts | 86° |
| 2026-05-05 00:46 | 41.85490 | -71.13776 | 11993 ft | 379 kts | 81° |
| 2026-05-05 00:46 | 41.86280 | -71.10423 | 11879 ft | 373 kts | 61° |
| 2026-05-05 00:46 | 41.87528 | -71.07471 | 12085 ft | 360 kts | 57° |
| 2026-05-05 00:47 | 41.88792 | -71.04630 | 12085 ft | 344 kts | 57° |
| 2026-05-05 00:47 | 41.89988 | -71.01937 | 12070 ft | 329 kts | 56° |
| 2026-05-05 00:47 | 41.91120 | -70.99363 | 12059 ft | 316 kts | 57° |
| 2026-05-05 00:47 | 41.92216 | -70.96852 | 12054 ft | 314 kts | 57° |
| 2026-05-05 00:48 | 41.93326 | -70.94294 | 12066 ft | 314 kts | 57° |
| 2026-05-05 00:48 | 41.94420 | -70.91760 | 12060 ft | 314 kts | 57° |
| 2026-05-05 00:48 | 41.95501 | -70.89245 | 12018 ft | 315 kts | 57° |
| 2026-05-05 00:48 | 41.96603 | -70.86679 | 11613 ft | 317 kts | 57° |
| 2026-05-05 00:49 | 41.97695 | -70.84131 | 11199 ft | 313 kts | 57° |
| 2026-05-05 00:49 | 41.98774 | -70.81609 | 10825 ft | 308 kts | 57° |
| 2026-05-05 00:49 | 41.99829 | -70.79144 | 10463 ft | 306 kts | 57° |
| 2026-05-05 00:49 | 42.00948 | -70.76723 | 10095 ft | 304 kts | 52° |
| 2026-05-05 00:50 | 42.02222 | -70.74541 | 9938 ft | 296 kts | 45° |
| 2026-05-05 00:50 | 42.03589 | -70.72473 | 9941 ft | 297 kts | 44° |
| 2026-05-05 00:50 | 42.04980 | -70.70405 | 9602 ft | 298 kts | 44° |
| 2026-05-05 00:50 | 42.06385 | -70.68317 | 9228 ft | 298 kts | 44° |
| 2026-05-05 00:51 | 42.07767 | -70.66252 | 8855 ft | 298 kts | 44° |
| 2026-05-05 00:51 | 42.09158 | -70.64165 | 8490 ft | 298 kts | 44° |
| 2026-05-05 00:51 | 42.10605 | -70.62239 | 8110 ft | 294 kts | 31° |
| 2026-05-05 00:51 | 42.12402 | -70.61126 | 7914 ft | 278 kts | 9° |
| 2026-05-05 00:52 | 42.14304 | -70.60577 | 7935 ft | 277 kts | 6° |
| 2026-05-05 00:52 | 42.16226 | -70.60075 | 7953 ft | 278 kts | 6° |
| 2026-05-05 00:52 | 42.18166 | -70.59564 | 7799 ft | 280 kts | 6° |
| 2026-05-05 00:52 | 42.20068 | -70.59049 | 7442 ft | 282 kts | 6° |
| 2026-05-05 00:53 | 42.22006 | -70.58518 | 7000 ft | 282 kts | 6° |
| 2026-05-05 00:53 | 42.23916 | -70.57987 | 6675 ft | 281 kts | 7° |
| 2026-05-05 00:53 | 42.25819 | -70.57458 | 6326 ft | 282 kts | 6° |
| 2026-05-05 00:53 | 42.27746 | -70.56918 | 5969 ft | 283 kts | 6° |
| 2026-05-05 00:54 | 42.29670 | -70.56381 | 5585 ft | 283 kts | 6° |
| 2026-05-05 00:54 | 42.31588 | -70.55926 | 5242 ft | 277 kts | 357° |
| 2026-05-05 00:54 | 42.33351 | -70.56509 | 5065 ft | 256 kts | 322° |
| 2026-05-05 00:54 | 42.34653 | -70.58089 | 5065 ft | 252 kts | 310° |
| 2026-05-05 00:55 | 42.35892 | -70.59795 | 5039 ft | 252 kts | 310° |
| 2026-05-05 00:55 | 42.37127 | -70.61456 | 5013 ft | 251 kts | 310° |
| 2026-05-05 00:55 | 42.38376 | -70.63124 | 5006 ft | 251 kts | 311° |
| 2026-05-05 00:55 | 42.39614 | -70.64764 | 4987 ft | 251 kts | 311° |
| 2026-05-05 00:56 | 42.40860 | -70.66411 | 5002 ft | 252 kts | 311° |
| 2026-05-05 00:56 | 42.42120 | -70.68074 | 5003 ft | 252 kts | 311° |
| 2026-05-05 00:56 | 42.43365 | -70.69716 | 5019 ft | 252 kts | 311° |
| 2026-05-05 00:56 | 42.44620 | -70.71368 | 5001 ft | 249 kts | 311° |
| 2026-05-05 00:57 | 42.45868 | -70.73010 | 4690 ft | 249 kts | 311° |
| 2026-05-05 00:57 | 42.47098 | -70.74635 | 4329 ft | 250 kts | 310° |
| 2026-05-05 00:57 | 42.48351 | -70.76288 | 4002 ft | 250 kts | 310° |
| 2026-05-05 00:57 | 42.49580 | -70.77911 | 3679 ft | 250 kts | 310° |
| 2026-05-05 00:58 | 42.50827 | -70.79556 | 3361 ft | 249 kts | 310° |
| 2026-05-05 00:58 | 42.52108 | -70.81116 | 3195 ft | 246 kts | 320° |
| 2026-05-05 00:58 | 42.53756 | -70.81741 | 3018 ft | 257 kts | 359° |
| 2026-05-05 00:58 | 42.55460 | -70.81097 | 3020 ft | 253 kts | 16° |
| 2026-05-05 00:59 | 42.57119 | -70.80306 | 3006 ft | 248 kts | 2° |
| 2026-05-05 00:59 | 42.58755 | -70.80508 | 2999 ft | 228 kts | 329° |
| 2026-05-05 00:59 | 42.59900 | -70.81692 | 2985 ft | 200 kts | 295° |
| 2026-05-05 00:59 | 42.60264 | -70.83429 | 3008 ft | 190 kts | 265° |
| 2026-05-05 01:00 | 42.60093 | -70.85204 | 3015 ft | 188 kts | 257° |
| 2026-05-05 01:00 | 42.59737 | -70.86881 | 3002 ft | 188 kts | 244° |
| 2026-05-05 01:00 | 42.59075 | -70.88416 | 3010 ft | 189 kts | 239° |
| 2026-05-05 01:00 | 42.58195 | -70.89744 | 3003 ft | 193 kts | 218° |
| 2026-05-05 01:01 | 42.56981 | -70.90540 | 3018 ft | 197 kts | 206° |
| 2026-05-05 01:01 | 42.55679 | -70.91180 | 3019 ft | 197 kts | 205° |
| 2026-05-05 01:01 | 42.54395 | -70.91807 | 3013 ft | 197 kts | 206° |
| 2026-05-05 01:01 | 42.53105 | -70.92436 | 3014 ft | 196 kts | 205° |
| 2026-05-05 01:02 | 42.51833 | -70.93053 | 3028 ft | 189 kts | 205° |
| 2026-05-05 01:02 | 42.50641 | -70.93626 | 2913 ft | 178 kts | 205° |
| 2026-05-05 01:02 | 42.49489 | -70.94185 | 2655 ft | 173 kts | 206° |
| 2026-05-05 01:02 | 42.48386 | -70.94723 | 2358 ft | 164 kts | 206° |
| 2026-05-05 01:03 | 42.47348 | -70.95225 | 2139 ft | 153 kts | 206° |
| 2026-05-05 01:03 | 42.46380 | -70.95693 | 1908 ft | 143 kts | 206° |
| 2026-05-05 01:03 | 42.45484 | -70.96127 | 1710 ft | 131 kts | 206° |
| 2026-05-05 01:03 | 42.44651 | -70.96533 | 1553 ft | 129 kts | 207° |
| 2026-05-05 01:04 | 42.43807 | -70.96954 | 1388 ft | 128 kts | 205° |
| 2026-05-05 01:04 | 42.42132 | -70.97764 | 1050 ft | 127 kts | 204° |
| 2026-05-05 01:04 | 42.41294 | -70.98152 | 872 ft | 127 kts | 204° |
| 2026-05-05 01:05 | 42.40451 | -70.98545 | 724 ft | 127 kts | 204° |
| 2026-05-05 01:05 | 42.39627 | -70.98977 | 542 ft | 128 kts | 202° |
| 2026-05-05 01:05 | 42.38798 | -70.99385 | 346 ft | 127 kts | 201° |
| 2026-05-05 01:05 | 42.37967 | -70.99789 | 154 ft | 126 kts | 200° |
| 2026-05-05 01:06 | 42.37157 | -71.00182 | 20 ft | 120 kts | 200° |
| 2026-05-05 01:06 | 42.36502 | -71.00497 | 17 ft | 74 kts | 199° |
| 2026-05-05 01:06 | 42.36185 | -71.00673 | 18 ft | 25 kts | 224° |
| 2026-05-05 01:06 | 42.36160 | -71.00843 | 19 ft | 18 kts | 291° |
| 2026-05-05 01:07 | 42.36209 | -71.00993 | 20 ft | 13 kts | 294° |
| 2026-05-05 01:07 | 42.36235 | -71.01070 | 20 ft | 0 kts | 294° |
| 2026-05-05 01:08 | 42.36244 | -71.01098 | 20 ft | 10 kts | 294° |
| 2026-05-05 01:08 | 42.36294 | -71.01223 | 20 ft | 15 kts | 301° |
| 2026-05-05 01:09 | 42.36330 | -71.01302 | 20 ft | 0 kts | 301° |
| 2026-05-05 01:09 | 42.36343 | -71.01330 | 20 ft | 11 kts | 301° |
| 2026-05-05 01:10 | 42.36330 | -71.01430 | 20 ft | 13 kts | 206° |
| 2026-05-05 01:10 | 42.36246 | -71.01479 | 20 ft | 13 kts | 209° |
| 2026-05-05 01:10 | 42.36237 | -71.01577 | 20 ft | 11 kts | 320° |
| 2026-05-05 01:10 | 42.36292 | -71.01612 | 20 ft | 3 kts | 341° |
| 2026-05-05 01:11 | 42.36292 | -71.01613 | 20 ft | 0 kts | 341° |